createdAt,value
2023-01-26T00:00:52.168Z,-1.3
2023-01-26T00:06:02.692Z,-1.3
2023-01-26T00:12:16.583Z,-1.2
2023-01-26T00:14:20.283Z,-1.2
2023-01-26T00:16:23.967Z,-1.2
2023-01-26T00:22:34.434Z,-1.1
2023-01-26T00:24:38.003Z,-1.1
2023-01-26T00:26:44.377Z,-1.1
2023-01-26T00:32:55.154Z,-1
2023-01-26T00:37:02.405Z,-1.1
2023-01-26T00:39:06.059Z,-1.1
2023-01-26T00:41:12.545Z,-1
2023-01-26T00:43:16.191Z,-1.1
2023-01-26T00:45:19.740Z,-1
2023-01-26T00:47:23.313Z,-1
2023-01-26T00:49:26.859Z,-0.9
2023-01-26T00:51:30.563Z,-0.9
2023-01-26T00:57:44.180Z,-0.9
2023-01-26T01:00:51.171Z,-1
2023-01-26T01:02:54.806Z,-1
2023-01-26T01:04:58.450Z,-1
2023-01-26T01:07:01.977Z,-1.1
2023-01-26T01:11:11.905Z,-1
2023-01-26T01:13:15.488Z,-0.9
2023-01-26T01:15:19.047Z,-1
2023-01-26T01:17:22.622Z,-1
2023-01-26T01:19:26.179Z,-1
2023-01-26T01:21:29.765Z,-1
2023-01-26T01:23:36.155Z,-0.9
2023-01-26T01:25:39.752Z,-0.9
2023-01-26T01:27:43.302Z,-0.9
2023-01-26T01:29:46.883Z,-0.9
2023-01-26T01:31:50.586Z,-0.9
2023-01-26T01:33:54.109Z,-1
2023-01-26T01:35:57.802Z,-1
2023-01-26T01:38:04.300Z,-1
2023-01-26T01:40:07.956Z,-0.9
2023-01-26T01:42:11.649Z,-1
2023-01-26T01:44:15.323Z,-0.9
2023-01-26T01:46:19.061Z,-0.9
2023-01-26T01:48:22.674Z,-0.9
2023-01-26T01:50:26.220Z,-0.9
2023-01-26T01:52:32.696Z,-0.9
2023-01-26T01:54:36.401Z,-0.9
2023-01-26T01:56:40.087Z,-0.9
2023-01-26T01:59:47.060Z,-0.9
2023-01-26T02:03:54.886Z,-0.9
2023-01-26T02:14:15.868Z,-0.8
2023-01-26T02:16:19.503Z,-0.8
2023-01-26T02:18:23.085Z,-0.8
2023-01-26T02:20:29.708Z,-0.8
2023-01-26T02:22:33.285Z,-0.8
2023-01-26T02:24:36.827Z,-0.8
2023-01-26T02:26:40.985Z,-0.8
2023-01-26T02:28:44.651Z,-0.8
2023-01-26T02:30:48.250Z,-0.8
2023-01-26T02:32:51.784Z,-0.8
2023-01-26T02:34:58.342Z,-0.8
2023-01-26T02:37:01.987Z,-0.8
2023-01-26T02:39:05.683Z,-0.8
2023-01-26T02:41:09.359Z,-0.8
2023-01-26T02:43:13.003Z,-0.8
2023-01-26T02:45:16.689Z,-0.8
2023-01-26T02:47:20.275Z,-0.7
2023-01-26T02:49:26.641Z,-0.8
2023-01-26T02:51:30.252Z,-0.8
2023-01-26T02:53:33.819Z,-0.7
2023-01-26T02:56:03.388Z,-0.8
2023-01-26T02:58:06.933Z,-0.8
2023-01-26T03:00:10.862Z,-0.8
2023-01-26T03:02:16.982Z,-0.7
2023-01-26T03:08:27.677Z,-0.7
2023-01-26T03:10:31.238Z,-0.7
2023-01-26T03:12:34.839Z,-0.7
2023-01-26T03:14:38.420Z,-0.7
2023-01-26T03:16:44.804Z,-0.7
2023-01-26T03:18:48.511Z,-0.7
2023-01-26T03:20:52.143Z,-0.7
2023-01-26T03:22:55.774Z,-0.7
2023-01-26T03:24:59.440Z,-0.7
2023-01-26T03:27:03.146Z,-0.7
2023-01-26T03:29:06.690Z,-0.7
2023-01-26T03:33:16.686Z,-0.7
2023-01-26T03:37:23.938Z,-0.7
2023-01-26T03:39:27.639Z,-0.7
2023-01-26T03:41:31.229Z,-0.7
2023-01-26T03:49:48.482Z,-0.6
2023-01-26T03:50:51.670Z,-0.6
2023-01-26T03:54:58.900Z,-0.6
2023-01-26T03:57:02.515Z,-0.5
2023-01-26T03:59:09.032Z,-0.6
2023-01-26T04:01:12.584Z,-0.6
2023-01-26T04:03:16.190Z,-0.6
2023-01-26T04:05:19.754Z,-0.5
2023-01-26T04:07:23.353Z,-0.5
2023-01-26T04:09:26.922Z,-0.5
2023-01-26T04:11:30.602Z,-0.6
2023-01-26T04:13:37.017Z,-0.6
2023-01-26T04:19:49.276Z,-0.5
2023-01-26T04:21:52.797Z,-0.5
2023-01-26T04:23:56.505Z,-0.5
2023-01-26T04:28:06.610Z,-0.5
2023-01-26T04:30:10.577Z,-0.5
2023-01-26T04:32:13.760Z,-0.5
2023-01-26T04:34:17.358Z,-0.4
2023-01-26T04:36:20.926Z,-0.5
2023-01-26T04:38:24.508Z,-0.4
2023-01-26T04:40:28.092Z,-0.5
2023-01-26T04:42:34.490Z,-0.4
2023-01-26T04:44:38.102Z,-0.4
2023-01-26T04:46:41.668Z,-0.5
2023-01-26T04:49:48.452Z,-0.4
2023-01-26T04:51:52.054Z,-0.4
2023-01-26T04:53:55.619Z,-0.4
2023-01-26T04:56:02.053Z,-0.3
2023-01-26T04:58:05.654Z,-0.3
2023-01-26T05:00:09.720Z,-0.3
2023-01-26T05:04:17.652Z,-0.3
2023-01-26T05:18:46.020Z,-0.3
2023-01-26T05:20:49.700Z,-0.4
2023-01-26T05:29:08.027Z,-0.3
2023-01-26T05:31:11.608Z,-0.3
2023-01-26T05:33:15.231Z,-0.3
2023-01-26T05:35:18.808Z,-0.3
2023-01-26T05:37:22.502Z,-0.3
2023-01-26T05:39:28.905Z,-0.3
2023-01-26T05:41:32.537Z,-0.2
2023-01-26T05:43:36.202Z,-0.2
2023-01-26T05:44:39.535Z,-0.3
2023-01-26T05:46:43.202Z,-0.2
2023-01-26T05:48:46.895Z,-0.2
2023-01-26T05:50:50.608Z,-0.2
2023-01-26T05:52:57.061Z,-0.2
2023-01-26T05:55:00.621Z,-0.2
2023-01-26T05:57:04.300Z,-0.2
2023-01-26T05:59:08.014Z,-0.2
2023-01-26T06:01:11.606Z,-0.2
2023-01-26T06:03:15.197Z,-0.2
2023-01-26T06:05:18.795Z,-0.2
2023-01-26T06:07:25.315Z,-0.1
2023-01-26T06:09:29.026Z,-0.1
2023-01-26T06:11:32.739Z,-0.1
2023-01-26T06:13:36.412Z,-0.1
2023-01-26T06:15:40.180Z,-0.1
2023-01-26T06:19:47.517Z,-0.1
2023-01-26T06:21:54.055Z,0
2023-01-26T06:23:57.718Z,0
2023-01-26T06:26:01.254Z,0
2023-01-26T06:28:04.950Z,0
2023-01-26T06:30:08.745Z,0
2023-01-26T06:32:12.135Z,0
2023-01-26T06:34:15.751Z,0.1
2023-01-26T06:36:22.274Z,0.1
2023-01-26T06:38:25.988Z,0.1
2023-01-26T06:40:29.695Z,0.1
2023-01-26T06:42:59.179Z,0.1
2023-01-26T06:45:02.827Z,0.1
2023-01-26T06:47:06.487Z,0.1
2023-01-26T06:49:13.126Z,0.1
2023-01-26T06:53:20.323Z,0.2
2023-01-26T06:55:24.036Z,0.1
2023-01-26T06:57:27.730Z,0.1
2023-01-26T06:59:31.465Z,0.2
2023-01-26T07:01:35.189Z,0.2
2023-01-26T07:03:41.684Z,0.2
2023-01-26T07:05:45.299Z,0.2
2023-01-26T07:07:48.911Z,0.2
2023-01-26T07:09:52.609Z,0.2
2023-01-26T07:11:56.204Z,0.3
2023-01-26T07:14:00.188Z,0.2
2023-01-26T07:16:03.807Z,0.3
2023-01-26T07:18:10.380Z,0.3
2023-01-26T07:20:14.038Z,0.3
2023-01-26T07:22:17.707Z,0.3
2023-01-26T07:24:21.369Z,0.3
2023-01-26T07:26:24.919Z,0.3
2023-01-26T07:28:28.650Z,0.4
2023-01-26T07:30:32.254Z,0.4
2023-01-26T07:32:38.673Z,0.5
2023-01-26T07:34:42.282Z,0.5
2023-01-26T07:36:45.925Z,0.5
2023-01-26T07:39:52.762Z,0.5
2023-01-26T07:46:06.735Z,0.5
2023-01-26T07:48:10.278Z,0.5
2023-01-26T07:50:13.998Z,0.6
2023-01-26T07:52:17.608Z,0.6
2023-01-26T07:54:21.204Z,0.7
2023-01-26T07:56:24.804Z,0.7
2023-01-26T07:58:28.535Z,0.7
2023-01-26T08:00:34.991Z,0.8
2023-01-26T08:02:38.637Z,0.8
2023-01-26T08:04:42.205Z,0.9
2023-01-26T08:06:45.825Z,0.9
2023-01-26T08:08:49.549Z,1.2
2023-01-26T08:10:53.151Z,1.2
2023-01-26T08:12:56.768Z,1.1
2023-01-26T08:15:03.207Z,1.1
2023-01-26T08:17:06.849Z,1.1
2023-01-26T08:19:10.564Z,1.2
2023-01-26T08:21:14.305Z,1.2
2023-01-26T08:23:18.042Z,1.2
2023-01-26T08:25:21.678Z,1.3
2023-01-26T08:27:25.307Z,1.3
2023-01-26T08:29:31.867Z,1.4
2023-01-26T08:31:35.525Z,1.4
2023-01-26T08:33:39.136Z,1.5
2023-01-26T08:34:42.336Z,1.6
2023-01-26T08:36:45.950Z,1.6
2023-01-26T08:38:49.580Z,1.6
2023-01-26T08:40:53.232Z,1.6
2023-01-26T08:42:59.669Z,1.6
2023-01-26T08:45:03.329Z,1.5
2023-01-26T08:47:06.984Z,1.6
2023-01-26T08:57:27.986Z,1.9
2023-01-26T08:59:31.642Z,1.9
2023-01-26T09:01:35.287Z,1.9
2023-01-26T09:03:38.924Z,1.9
2023-01-26T09:05:42.593Z,1.9
2023-01-26T09:07:46.327Z,2.1
2023-01-26T09:09:49.990Z,2
2023-01-26T09:16:03.774Z,2.2
2023-01-26T09:18:07.428Z,2.2
2023-01-26T09:26:24.883Z,2.5
2023-01-26T09:30:32.365Z,2.7
2023-01-26T09:31:35.714Z,3.3
2023-01-26T09:33:39.347Z,3.5
2023-01-26T09:35:43.059Z,3.9
2023-01-26T09:39:53.223Z,3.1
2023-01-26T09:44:00.613Z,3.2
2023-01-26T09:46:04.378Z,3.4
2023-01-26T09:48:08.008Z,3.8
2023-01-26T09:52:15.366Z,5.7
2023-01-26T09:54:22.454Z,6.3
2023-01-26T09:56:26.240Z,5.9
2023-01-26T09:58:29.950Z,5.3
2023-01-26T10:00:33.668Z,5.6
2023-01-26T10:04:41.054Z,7.4
2023-01-26T10:06:44.760Z,7.9
2023-01-26T10:08:51.283Z,8.7
2023-01-26T10:10:55.007Z,8.4
2023-01-26T10:15:02.488Z,8.4
2023-01-26T10:17:06.643Z,7.9
2023-01-26T10:19:10.347Z,8.6
2023-01-26T10:21:14.112Z,9.6
2023-01-26T10:25:25.343Z,9.1
2023-01-26T10:29:57.735Z,9.9
2023-01-26T10:32:01.493Z,10.2
2023-01-26T10:36:11.861Z,11.1
2023-01-26T10:38:15.660Z,11.3
2023-01-26T10:40:19.433Z,10.7
2023-01-26T10:42:23.228Z,10.7
2023-01-26T10:44:27.048Z,10.6
2023-01-26T10:46:30.859Z,10.7
2023-01-26T10:48:34.617Z,10.7
2023-01-26T10:50:41.249Z,11.4
2023-01-26T10:56:52.699Z,11.7
2023-01-26T11:03:04.266Z,11.6
2023-01-26T11:07:14.659Z,11.5
2023-01-26T11:09:18.498Z,11
2023-01-26T11:11:22.325Z,10.6
2023-01-26T11:13:26.185Z,11.5
2023-01-26T11:17:33.812Z,11.3
2023-01-26T11:19:40.525Z,10.1
2023-01-26T11:21:44.312Z,9.3
2023-01-26T11:24:51.520Z,8.1
2023-01-26T11:26:55.341Z,8.1
2023-01-26T11:28:59.217Z,8.1
2023-01-26T11:31:03.153Z,7.7
2023-01-26T11:35:13.897Z,7.8
2023-01-26T11:41:25.123Z,7.8
2023-01-26T11:43:28.975Z,7.7
2023-01-26T11:45:32.856Z,7.6
2023-01-26T11:47:39.490Z,7.5
2023-01-26T11:49:43.327Z,7.5
2023-01-26T11:51:47.180Z,7.5
2023-01-26T11:53:51.039Z,7.7
2023-01-26T11:55:54.876Z,7.6
2023-01-26T11:57:58.731Z,7.6
2023-01-26T12:00:02.601Z,7.6
2023-01-26T12:02:09.259Z,7.8
2023-01-26T12:04:13.066Z,7.6
2023-01-26T12:06:17.574Z,7.6
2023-01-26T12:10:25.198Z,7.8
2023-01-26T12:16:39.575Z,7.9
2023-01-26T12:20:47.237Z,7.8
2023-01-26T12:21:50.659Z,7.8
2023-01-26T12:23:54.461Z,7.7
2023-01-26T12:25:58.344Z,7.8
2023-01-26T12:30:08.717Z,7.6
2023-01-26T12:32:12.567Z,7.6
2023-01-26T12:34:16.413Z,7.6
2023-01-26T12:44:38.424Z,8.5
2023-01-26T12:46:42.228Z,8.5
2023-01-26T12:48:46.058Z,8
2023-01-26T12:50:49.904Z,7.9
2023-01-26T12:54:57.613Z,8.3
2023-01-26T12:57:01.435Z,8.4
2023-01-26T12:59:08.388Z,8.3
2023-01-26T13:01:12.003Z,8.2
2023-01-26T13:03:15.773Z,8.2
2023-01-26T13:05:19.614Z,8.4
2023-01-26T13:07:23.446Z,8.5
2023-01-26T13:09:27.319Z,8.5
2023-01-26T13:11:31.155Z,8.4
2023-01-26T13:13:37.813Z,8.3
2023-01-26T13:15:41.696Z,8.2
2023-01-26T13:17:45.508Z,8.2
2023-01-26T13:18:48.968Z,8
2023-01-26T13:22:56.523Z,8
2023-01-26T13:27:07.055Z,7.9
2023-01-26T13:29:10.908Z,7.9
2023-01-26T13:33:18.612Z,7.9
2023-01-26T13:37:26.325Z,7.9
2023-01-26T13:41:36.812Z,7.9
2023-01-26T13:43:40.691Z,7.9
2023-01-26T13:51:56.102Z,7.7
2023-01-26T13:56:06.556Z,7.7
2023-01-26T14:02:18.112Z,7.6
2023-01-26T14:06:25.797Z,7.7
2023-01-26T14:08:29.642Z,7.7
2023-01-26T14:17:13.483Z,7.7
2023-01-26T14:19:17.331Z,7.7
2023-01-26T14:23:27.799Z,7.6
2023-01-26T14:27:35.496Z,7.4
2023-01-26T14:29:39.340Z,7.4
2023-01-26T14:33:46.990Z,7.4
2023-01-26T14:35:50.835Z,7.5
2023-01-26T14:37:57.490Z,7.6
2023-01-26T14:40:01.338Z,7.6
2023-01-26T14:42:05.175Z,7.5
2023-01-26T14:44:09.022Z,7.5
2023-01-26T14:46:13.013Z,7.5
2023-01-26T14:48:16.705Z,7.5
2023-01-26T14:50:20.524Z,7.5
2023-01-26T14:52:27.212Z,7.4
2023-01-26T14:54:31.006Z,7.4
2023-01-26T14:56:34.855Z,7.4
2023-01-26T14:58:38.696Z,7.4
2023-01-26T15:00:42.572Z,7.3
2023-01-26T15:02:46.351Z,7.3
2023-01-26T15:04:50.225Z,7.3
2023-01-26T15:06:56.844Z,7.3
2023-01-26T15:12:07.831Z,7.2
2023-01-26T15:16:15.586Z,7.1
2023-01-26T15:20:25.988Z,7
2023-01-26T15:22:29.852Z,7
2023-01-26T15:24:33.658Z,7
2023-01-26T15:26:37.495Z,7
2023-01-26T15:28:41.293Z,7
2023-01-26T15:30:45.176Z,7
2023-01-26T15:34:55.612Z,7
2023-01-26T15:47:18.521Z,6.9
2023-01-26T15:49:25.193Z,6.8
2023-01-26T15:51:28.968Z,6.8
2023-01-26T15:55:36.629Z,6.8
2023-01-26T15:57:40.435Z,6.8
2023-01-26T15:59:44.276Z,6.8
2023-01-26T16:01:48.168Z,6.8
2023-01-26T16:03:54.717Z,6.8
2023-01-26T16:05:58.533Z,6.8
2023-01-26T16:08:02.338Z,6.7
2023-01-26T16:09:05.663Z,6.7
2023-01-26T16:13:14.789Z,6.7
2023-01-26T16:19:35.339Z,6.7
2023-01-26T16:21:32.814Z,6.6
2023-01-26T16:23:36.610Z,6.6
2023-01-26T16:25:40.449Z,6.6
2023-01-26T16:27:44.222Z,6.6
2023-01-26T16:29:48.061Z,6.6
2023-01-26T16:31:54.818Z,6.6
2023-01-26T16:33:58.605Z,6.6
2023-01-26T16:36:02.307Z,6.5
2023-01-26T16:38:06.119Z,6.5
2023-01-26T16:42:13.748Z,6.5
2023-01-26T16:44:17.551Z,6.5
2023-01-26T16:46:24.187Z,6.5
2023-01-26T16:50:31.828Z,6.6
2023-01-26T16:56:43.240Z,6.5
2023-01-26T16:58:47.041Z,6.5
2023-01-26T17:02:57.539Z,6.5
2023-01-26T17:05:01.325Z,6.5
2023-01-26T17:06:04.627Z,6.5
2023-01-26T17:08:08.500Z,6.4
2023-01-26T17:10:14.241Z,6.5
2023-01-26T17:14:22.778Z,6.3
2023-01-26T17:16:26.572Z,6.4
2023-01-26T17:18:30.345Z,6.2
2023-01-26T17:20:34.220Z,6.2
2023-01-26T17:22:37.998Z,6.2
2023-01-26T17:24:41.812Z,6.2
2023-01-26T17:26:45.655Z,6.2
2023-01-26T17:28:52.256Z,6.2
2023-01-26T17:30:56.200Z,6.2
2023-01-26T17:32:59.884Z,6.2
2023-01-26T17:35:03.707Z,6.2
2023-01-26T17:41:15.169Z,6.2
2023-01-26T17:45:26.559Z,6.2
2023-01-26T17:47:30.271Z,6.2
2023-01-26T17:49:34.064Z,6.2
2023-01-26T17:51:37.862Z,6.2
2023-01-26T17:55:45.472Z,6.2
2023-01-26T17:59:55.913Z,6.1
2023-01-26T18:01:59.761Z,6.1
2023-01-26T18:04:31.346Z,6.1
2023-01-26T18:06:33.130Z,6.1
2023-01-26T18:08:36.919Z,6.1
2023-01-26T18:10:43.523Z,6.1
2023-01-26T18:16:54.994Z,6
2023-01-26T18:25:13.328Z,6
2023-01-26T18:27:16.919Z,6
2023-01-26T18:31:24.555Z,5.9
2023-01-26T18:33:28.415Z,6
2023-01-26T18:37:35.987Z,6
2023-01-26T18:39:43.244Z,5.9
2023-01-26T18:41:47.004Z,5.9
2023-01-26T18:45:54.595Z,5.9
2023-01-26T18:52:05.967Z,5.8
2023-01-26T18:56:16.374Z,5.8
2023-01-26T18:58:20.179Z,5.8
2023-01-26T18:59:23.484Z,5.8
2023-01-26T19:01:27.459Z,5.8
2023-01-26T19:03:31.164Z,5.8
2023-01-26T19:05:35.038Z,5.7
2023-01-26T19:13:52.982Z,5.8
2023-01-26T19:15:56.772Z,5.8
2023-01-26T19:20:04.353Z,5.8
2023-01-26T19:24:14.774Z,5.7
2023-01-26T19:26:18.509Z,5.7
2023-01-26T19:30:26.108Z,5.5
2023-01-26T19:34:33.824Z,5.5
2023-01-26T19:36:40.369Z,5.5
2023-01-26T19:38:44.187Z,5.5
2023-01-26T19:44:55.520Z,5.4
2023-01-26T19:49:03.061Z,5.4
2023-01-26T19:53:13.430Z,5.5
2023-01-26T19:55:17.224Z,5.5
2023-01-26T19:58:24.320Z,5.5
2023-01-26T20:04:38.576Z,5.4
2023-01-26T20:08:46.243Z,5.4
2023-01-26T20:10:50.092Z,5.4
2023-01-26T20:12:53.796Z,5.4
2023-01-26T20:27:23.159Z,4.9
2023-01-26T20:29:26.912Z,4.8
2023-01-26T20:31:30.738Z,4.7
2023-01-26T20:33:37.257Z,4.6
2023-01-26T20:37:44.816Z,4.5
2023-01-26T20:44:00.921Z,4.3
2023-01-26T20:45:59.879Z,4.2
2023-01-26T20:48:06.418Z,4.1
2023-01-26T20:50:10.482Z,4.1
2023-01-26T20:52:13.904Z,4.2
2023-01-26T20:53:17.280Z,4.2
2023-01-26T20:55:21.009Z,4.2
2023-01-26T20:57:24.768Z,4.2
2023-01-26T20:59:28.490Z,4.2
2023-01-26T21:01:35.046Z,4.2
2023-01-26T21:03:38.810Z,4.2
2023-01-26T21:07:46.449Z,4.2
2023-01-26T21:09:50.165Z,4.1
2023-01-26T21:11:53.920Z,4.1
2023-01-26T21:13:57.652Z,4.1
2023-01-26T21:16:04.217Z,4.1
2023-01-26T21:18:08.069Z,4.1
2023-01-26T21:20:11.900Z,4
2023-01-26T21:22:15.409Z,4
2023-01-26T21:24:19.294Z,3.9
2023-01-26T21:26:23.033Z,3.9
2023-01-26T21:28:26.747Z,3.8
2023-01-26T21:30:33.334Z,3.7
2023-01-26T21:32:37.035Z,3.7
2023-01-26T21:36:44.603Z,3.6
2023-01-26T21:51:39.616Z,3.5
2023-01-26T21:53:43.334Z,3.5
2023-01-26T21:55:47.042Z,3.6
2023-01-26T21:57:53.604Z,3.6
2023-01-26T21:59:57.324Z,3.6
2023-01-26T22:02:01.034Z,3.7
2023-01-26T22:04:04.970Z,3.7
2023-01-26T22:06:08.562Z,3.7
2023-01-26T22:16:32.694Z,3.9
2023-01-26T22:22:43.939Z,4
2023-01-26T22:26:54.393Z,4
2023-01-26T22:37:13.063Z,4.1
2023-01-26T22:41:23.371Z,4.1
2023-01-26T22:46:34.110Z,4.1
2023-01-26T22:48:37.834Z,4.1
2023-01-26T22:59:00.476Z,4.1
2023-01-26T23:01:03.288Z,4.1
2023-01-26T23:03:07.033Z,4.1
2023-01-26T23:05:10.876Z,4.1
2023-01-26T23:07:14.577Z,4
2023-01-26T23:09:21.250Z,4
2023-01-26T23:11:25.000Z,4
2023-01-26T23:13:28.830Z,4
2023-01-26T23:15:32.573Z,4
2023-01-26T23:17:36.316Z,4
2023-01-26T23:19:40.155Z,4
2023-01-26T23:21:44.005Z,4
2023-01-26T23:23:50.625Z,4
2023-01-26T23:25:54.312Z,4
2023-01-26T23:27:58.041Z,4
2023-01-26T23:30:03.392Z,4
2023-01-26T23:32:05.636Z,3.9
2023-01-26T23:34:09.294Z,3.9
2023-01-26T23:36:13.136Z,3.9
2023-01-26T23:40:23.443Z,3.9
2023-01-26T23:42:27.159Z,3.9
2023-01-26T23:43:30.456Z,3.9
2023-01-26T23:55:56.044Z,3.8
